Time,TemperatureF,DewpointF,PressureIn,WindDirection,WindDirectionDegrees,WindSpeedMPH,WindSpeedGustMPH,Humidity,HourlyPrecipIn,Conditions,Clouds,dailyrainin,SolarRadiationWatts/m^2,SoftwareType,DateUTC
2013-09-05 00:04:00,61.3,59.6,30.22,NE,51,0.0,1.0,94,0.00,,,0.00,0,Wunderground v.1.15,2013-09-05 05:04:00,
2013-09-05 00:09:00,61.2,59.5,30.22,NE,51,0.0,0.0,94,0.00,,,0.00,0,Wunderground v.1.15,2013-09-05 05:09:00,
2013-09-05 00:15:00,61.1,59.4,30.22,NE,51,0.0,0.0,94,0.00,,,0.00,0,Wunderground v.1.15,2013-09-05 05:15:00,
2013-09-05 00:20:00,61.1,59.4,30.22,NE,51,0.0,0.0,94,0.00,,,0.00,0,Wunderground v.1.15,2013-09-05 05:20:00,
2013-09-05 00:26:00,61.0,59.3,30.23,NE,51,0.0,0.0,94,0.00,,,0.00,0,Wunderground v.1.15,2013-09-05 05:26:00,
2013-09-05 00:31:00,60.9,59.2,30.23,NE,51,0.0,1.0,94,0.00,,,0.00,0,Wunderground v.1.15,2013-09-05 05:31:00,
2013-09-05 00:38:00,60.8,59.1,30.23,NE,51,0.0,1.0,94,0.00,,,0.00,0,Wunderground v.1.15,2013-09-05 05:38:00,
2013-09-05 00:43:00,60.8,59.1,30.23,NE,51,0.0,0.0,94,0.00,,,0.00,0,Wunderground v.1.15,2013-09-05 05:43:00,
2013-09-05 00:49:00,60.8,59.1,30.22,NE,51,0.0,1.0,94,0.00,,,0.00,0,Wunderground v.1.15,2013-09-05 05:49:00,
2013-09-05 00:54:00,60.8,59.4,30.23,NE,51,0.0,0.0,95,0.00,,,0.00,0,Wunderground v.1.15,2013-09-05 05:54:00,
2013-09-05 01:00:00,60.8,59.4,30.23,NE,51,0.0,0.0,95,0.00,,,0.00,0,Wunderground v.1.15,2013-09-05 06:00:00,
2013-09-05 01:05:00,60.7,59.0,30.24,NE,51,0.0,1.0,94,0.00,,,0.00,0,Wunderground v.1.15,2013-09-05 06:05:00,
2013-09-05 01:10:00,60.7,59.0,30.24,NE,51,0.0,0.0,94,0.00,,,0.00,0,Wunderground v.1.15,2013-09-05 06:10:00,
2013-09-05 01:16:00,60.5,58.8,30.24,NE,47,0.0,0.0,94,0.00,,,0.00,0,Wunderground v.1.15,2013-09-05 06:16:00,
2013-09-05 01:22:00,60.2,58.5,30.24,NE,47,0.0,2.0,94,0.00,,,0.00,0,Wunderground v.1.15,2013-09-05 06:22:00,
2013-09-05 01:27:00,60.1,58.4,30.24,NE,47,0.0,2.0,94,0.00,,,0.00,0,Wunderground v.1.15,2013-09-05 06:27:00,
2013-09-05 01:33:00,60.0,58.3,30.24,NE,48,0.0,0.0,94,0.00,,,0.00,0,Wunderground v.1.15,2013-09-05 06:33:00,
2013-09-05 01:38:00,59.9,58.5,30.24,NE,48,0.0,0.0,95,0.00,,,0.00,0,Wunderground v.1.15,2013-09-05 06:38:00,
2013-09-05 01:44:00,59.8,58.4,30.24,NE,48,0.0,1.0,95,0.00,,,0.00,0,Wunderground v.1.15,2013-09-05 06:44:00,
2013-09-05 01:50:00,59.8,58.4,30.25,NE,46,0.0,0.0,95,0.00,,,0.00,0,Wunderground v.1.15,2013-09-05 06:50:00,
2013-09-05 01:55:00,59.8,58.4,30.25,NE,46,0.0,0.0,95,0.00,,,0.00,0,Wunderground v.1.15,2013-09-05 06:55:00,
2013-09-05 02:01:00,59.7,58.3,30.25,NE,46,0.0,0.0,95,0.00,,,0.00,0,Wunderground v.1.15,2013-09-05 07:01:00,
2013-09-05 02:06:00,59.6,58.2,30.25,NE,46,0.0,1.0,95,0.00,,,0.00,0,Wunderground v.1.15,2013-09-05 07:06:00,
2013-09-05 02:11:00,59.5,58.1,30.25,NE,46,0.0,0.0,95,0.00,,,0.00,0,Wunderground v.1.15,2013-09-05 07:11:00,
2013-09-05 02:16:00,59.5,58.1,30.25,NE,46,0.0,1.0,95,0.00,,,0.00,0,Wunderground v.1.15,2013-09-05 07:16:00,
2013-09-05 02:21:00,59.4,58.0,30.25,NE,46,0.0,0.0,95,0.00,,,0.00,0,Wunderground v.1.15,2013-09-05 07:21:00,
2013-09-05 02:26:00,59.4,58.0,30.25,NE,46,0.0,0.0,95,0.00,,,0.00,0,Wunderground v.1.15,2013-09-05 07:26:00,
2013-09-05 02:31:00,59.3,57.9,30.26,NE,46,0.0,1.0,95,0.00,,,0.00,0,Wunderground v.1.15,2013-09-05 07:31:00,
2013-09-05 02:36:00,59.3,57.9,30.26,NE,46,0.0,1.0,95,0.00,,,0.00,0,Wunderground v.1.15,2013-09-05 07:36:00,
2013-09-05 02:41:00,59.4,58.3,30.26,NE,40,0.0,0.0,96,0.00,,,0.00,0,Wunderground v.1.15,2013-09-05 07:41:00,
2013-09-05 02:46:00,59.5,58.4,30.26,NE,36,0.0,4.0,96,0.00,,,0.00,0,Wunderground v.1.15,2013-09-05 07:46:00,
2013-09-05 02:51:00,59.6,58.2,30.26,NE,36,0.0,0.0,95,0.00,,,0.00,0,Wunderground v.1.15,2013-09-05 07:51:00,
2013-09-05 02:56:00,59.5,58.1,30.26,NE,36,1.0,2.0,95,0.00,,,0.00,0,Wunderground v.1.15,2013-09-05 07:56:00,
2013-09-05 03:01:00,59.6,58.5,30.26,NE,36,0.0,1.0,96,0.00,,,0.00,0,Wunderground v.1.15,2013-09-05 08:01:00,
2013-09-05 03:06:00,59.6,58.5,30.26,NE,44,1.0,7.0,96,0.00,,,0.00,0,Wunderground v.1.15,2013-09-05 08:06:00,
2013-09-05 03:11:00,59.7,58.6,30.26,NNE,18,0.0,1.0,96,0.00,,,0.00,0,Wunderground v.1.15,2013-09-05 08:11:00,
2013-09-05 03:16:00,59.6,58.2,30.26,NNE,22,0.0,2.0,95,0.00,,,0.00,0,Wunderground v.1.15,2013-09-05 08:16:00,
2013-09-05 03:21:00,59.5,58.1,30.27,NNE,20,2.0,3.0,95,0.00,,,0.00,0,Wunderground v.1.15,2013-09-05 08:21:00,
2013-09-05 03:26:00,59.5,58.1,30.27,NNE,22,1.0,3.0,95,0.00,,,0.00,0,Wunderground v.1.15,2013-09-05 08:26:00,
2013-09-05 03:31:00,59.4,58.0,30.27,NNE,22,0.0,2.0,95,0.00,,,0.00,0,Wunderground v.1.15,2013-09-05 08:31:00,
2013-09-05 03:36:00,59.3,57.9,30.26,NNE,22,0.0,2.0,95,0.00,,,0.00,0,Wunderground v.1.15,2013-09-05 08:36:00,
2013-09-05 03:41:00,59.2,57.8,30.27,NNE,22,0.0,2.0,95,0.00,,,0.00,0,Wunderground v.1.15,2013-09-05 08:41:00,
2013-09-05 03:46:00,59.1,57.7,30.27,NNE,23,0.0,4.0,95,0.00,,,0.00,0,Wunderground v.1.15,2013-09-05 08:46:00,
2013-09-05 03:51:00,59.0,57.6,30.27,NNE,23,1.0,1.0,95,0.00,,,0.00,0,Wunderground v.1.15,2013-09-05 08:51:00,
2013-09-05 03:56:00,58.8,57.4,30.27,NNE,31,1.0,4.0,95,0.00,,,0.00,0,Wunderground v.1.15,2013-09-05 08:56:00,
2013-09-05 04:01:00,58.6,57.2,30.27,ENE,60,3.0,3.0,95,0.00,,,0.00,0,Wunderground v.1.15,2013-09-05 09:01:00,
2013-09-05 04:06:00,58.5,57.1,30.27,NNE,32,0.0,3.0,95,0.00,,,0.00,0,Wunderground v.1.15,2013-09-05 09:06:00,
2013-09-05 04:11:00,58.2,56.5,30.28,NNE,22,0.0,4.0,94,0.00,,,0.00,0,Wunderground v.1.15,2013-09-05 09:11:00,
2013-09-05 04:16:00,58.0,56.3,30.28,NNE,17,0.0,4.0,94,0.00,,,0.00,0,Wunderground v.1.15,2013-09-05 09:16:00,
2013-09-05 04:21:00,57.8,56.1,30.28,NE,40,0.0,5.0,94,0.00,,,0.00,0,Wunderground v.1.15,2013-09-05 09:21:00,
2013-09-05 04:26:00,57.7,56.0,30.28,NNE,26,0.0,5.0,94,0.00,,,0.00,0,Wunderground v.1.15,2013-09-05 09:26:00,
2013-09-05 04:31:00,57.5,55.5,30.28,NE,42,0.0,5.0,93,0.00,,,0.00,0,Wunderground v.1.15,2013-09-05 09:31:00,
2013-09-05 04:36:00,57.3,55.3,30.29,NE,40,2.0,5.0,93,0.00,,,0.00,0,Wunderground v.1.15,2013-09-05 09:36:00,
2013-09-05 04:41:00,57.2,55.2,30.29,NE,40,0.0,4.0,93,0.00,,,0.00,0,Wunderground v.1.15,2013-09-05 09:41:00,
2013-09-05 04:46:00,57.0,55.0,30.29,NE,34,0.0,4.0,93,0.00,,,0.00,0,Wunderground v.1.15,2013-09-05 09:46:00,
2013-09-05 04:51:00,56.8,54.5,30.29,NNE,23,3.0,7.0,92,0.00,,,0.00,0,Wunderground v.1.15,2013-09-05 09:51:00,
2013-09-05 04:57:00,56.7,54.4,30.29,NNE,13,0.0,7.0,92,0.00,,,0.00,0,Wunderground v.1.15,2013-09-05 09:57:00,
2013-09-05 05:02:00,56.6,54.3,30.29,North,360,0.0,3.0,92,0.00,,,0.00,0,Wunderground v.1.15,2013-09-05 10:02:00,
2013-09-05 05:07:00,56.4,54.1,30.29,NNE,24,0.0,4.0,92,0.00,,,0.00,0,Wunderground v.1.15,2013-09-05 10:07:00,
2013-09-05 05:12:00,56.4,54.1,30.29,NE,43,0.0,3.0,92,0.00,,,0.00,0,Wunderground v.1.15,2013-09-05 10:12:00,
2013-09-05 05:17:00,56.2,53.9,30.29,North,9,0.0,5.0,92,0.00,,,0.00,0,Wunderground v.1.15,2013-09-05 10:17:00,
2013-09-05 05:22:00,56.1,53.5,30.30,NNE,23,0.0,4.0,91,0.00,,,0.00,0,Wunderground v.1.15,2013-09-05 10:22:00,
2013-09-05 05:27:00,55.9,53.3,30.30,NNE,22,1.0,4.0,91,0.00,,,0.00,0,Wunderground v.1.15,2013-09-05 10:27:00,
2013-09-05 05:32:00,55.7,53.1,30.30,NNE,22,0.0,2.0,91,0.00,,,0.00,0,Wunderground v.1.15,2013-09-05 10:32:00,
2013-09-05 05:37:00,55.6,53.3,30.30,NE,35,0.0,3.0,92,0.00,,,0.00,0,Wunderground v.1.15,2013-09-05 10:37:00,
2013-09-05 05:42:00,55.5,53.2,30.30,NE,35,0.0,2.0,92,0.00,,,0.00,0,Wunderground v.1.15,2013-09-05 10:42:00,
2013-09-05 05:47:00,55.3,52.7,30.30,NE,36,0.0,2.0,91,0.00,,,0.00,0,Wunderground v.1.15,2013-09-05 10:47:00,
2013-09-05 05:52:00,55.0,52.4,30.31,NE,36,0.0,1.0,91,0.00,,,0.00,0,Wunderground v.1.15,2013-09-05 10:52:00,
2013-09-05 05:57:00,54.8,52.5,30.31,NE,36,2.0,2.0,92,0.00,,,0.00,0,Wunderground v.1.15,2013-09-05 10:57:00,
2013-09-05 06:02:00,54.6,52.3,30.31,NNE,26,4.0,6.0,92,0.00,,,0.00,0,Wunderground v.1.15,2013-09-05 11:02:00,
2013-09-05 06:07:00,54.4,52.1,30.31,NNE,24,0.0,6.0,92,0.00,,,0.00,0,Wunderground v.1.15,2013-09-05 11:07:00,
2013-09-05 06:12:00,54.2,51.9,30.31,NNE,24,0.0,1.0,92,0.00,,,0.00,0,Wunderground v.1.15,2013-09-05 11:12:00,
2013-09-05 06:17:00,54.0,51.7,30.32,NNE,24,0.0,1.0,92,0.00,,,0.00,0,Wunderground v.1.15,2013-09-05 11:17:00,
2013-09-05 06:22:00,53.9,51.9,30.32,NNE,23,0.0,4.0,93,0.00,,,0.00,0,Wunderground v.1.15,2013-09-05 11:22:00,
2013-09-05 06:27:00,53.6,51.6,30.32,NNE,23,0.0,4.0,93,0.00,,,0.00,0,Wunderground v.1.15,2013-09-05 11:27:00,
2013-09-05 06:32:00,53.5,51.5,30.32,NNE,23,1.0,1.0,93,0.00,,,0.00,5,Wunderground v.1.15,2013-09-05 11:32:00,
2013-09-05 06:37:00,53.3,51.3,30.32,NNE,24,0.0,1.0,93,0.00,,,0.00,7,Wunderground v.1.15,2013-09-05 11:37:00,
2013-09-05 06:42:00,53.1,51.1,30.33,NNE,26,0.0,3.0,93,0.00,,,0.00,9,Wunderground v.1.15,2013-09-05 11:42:00,
2013-09-05 06:47:00,53.0,51.0,30.33,NNE,26,0.0,3.0,93,0.00,,,0.00,12,Wunderground v.1.15,2013-09-05 11:47:00,
2013-09-05 06:52:00,52.9,50.9,30.33,NNE,26,0.0,0.0,93,0.00,,,0.00,14,Wunderground v.1.15,2013-09-05 11:52:00,
2013-09-05 06:57:00,53.0,51.3,30.33,NNE,20,0.0,4.0,94,0.00,,,0.00,16,Wunderground v.1.15,2013-09-05 11:57:00,
2013-09-05 07:02:00,53.0,51.3,30.33,NNE,16,0.0,5.0,94,0.00,,,0.00,18,Wunderground v.1.15,2013-09-05 12:02:00,
2013-09-05 07:07:00,53.1,51.4,30.34,NNE,31,0.0,5.0,94,0.00,,,0.00,19,Wunderground v.1.15,2013-09-05 12:07:00,
2013-09-05 07:12:00,53.3,51.6,30.34,North,9,0.0,4.0,94,0.00,,,0.00,19,Wunderground v.1.15,2013-09-05 12:12:00,
2013-09-05 07:17:00,53.5,51.8,30.34,NNE,26,0.0,4.0,94,0.00,,,0.00,21,Wunderground v.1.15,2013-09-05 12:17:00,
2013-09-05 07:22:00,53.6,51.9,30.34,NNE,26,0.0,0.0,94,0.00,,,0.00,21,Wunderground v.1.15,2013-09-05 12:22:00,
2013-09-05 07:27:00,53.9,52.2,30.34,NE,36,0.0,2.0,94,0.00,,,0.00,23,Wunderground v.1.15,2013-09-05 12:27:00,
2013-09-05 07:32:00,54.1,52.4,30.34,NE,36,0.0,2.0,94,0.00,,,0.00,25,Wunderground v.1.15,2013-09-05 12:32:00,
2013-09-05 07:37:00,54.3,52.6,30.34,NNE,15,0.0,6.0,94,0.00,,,0.00,25,Wunderground v.1.15,2013-09-05 12:37:00,
2013-09-05 07:42:00,54.6,52.6,30.35,NNE,15,1.0,1.0,93,0.00,,,0.00,32,Wunderground v.1.15,2013-09-05 12:42:00,
2013-09-05 07:47:00,55.0,53.0,30.35,NE,34,3.0,4.0,93,0.00,,,0.00,132,Wunderground v.1.15,2013-09-05 12:47:00,
2013-09-05 07:52:00,55.5,52.9,30.35,NE,50,0.0,4.0,91,0.00,,,0.00,156,Wunderground v.1.15,2013-09-05 12:52:00,
2013-09-05 07:57:00,56.1,53.2,30.35,NE,50,1.0,7.0,90,0.00,,,0.00,199,Wunderground v.1.15,2013-09-05 12:57:00,
2013-09-05 08:02:00,56.7,53.5,30.35,NE,50,1.0,2.0,89,0.00,,,0.00,220,Wunderground v.1.15,2013-09-05 13:02:00,
2013-09-05 08:07:00,57.2,53.7,30.35,NNE,32,0.0,3.0,88,0.00,,,0.00,232,Wunderground v.1.15,2013-09-05 13:07:00,
2013-09-05 08:12:00,57.9,53.7,30.35,NNE,30,0.0,6.0,86,0.00,,,0.00,248,Wunderground v.1.15,2013-09-05 13:12:00,
2013-09-05 08:17:00,58.5,53.7,30.36,ENE,62,0.0,8.0,84,0.00,,,0.00,264,Wunderground v.1.15,2013-09-05 13:17:00,
2013-09-05 08:22:00,59.1,54.3,30.36,North,355,4.0,6.0,84,0.00,,,0.00,283,Wunderground v.1.15,2013-09-05 13:22:00,
2013-09-05 08:27:00,59.6,54.4,30.36,NE,34,6.0,6.0,83,0.00,,,0.00,313,Wunderground v.1.15,2013-09-05 13:27:00,
2013-09-05 08:32:00,60.2,54.7,30.36,NE,51,6.0,9.0,82,0.00,,,0.00,330,Wunderground v.1.15,2013-09-05 13:32:00,
2013-09-05 08:37:00,60.9,54.7,30.36,ENE,74,0.0,9.0,80,0.00,,,0.00,352,Wunderground v.1.15,2013-09-05 13:37:00,
2013-09-05 08:42:00,61.4,54.5,30.36,ENE,61,1.0,6.0,78,0.00,,,0.00,371,Wunderground v.1.15,2013-09-05 13:42:00,
2013-09-05 08:47:00,61.8,54.9,30.36,NE,54,2.0,6.0,78,0.00,,,0.00,387,Wunderground v.1.15,2013-09-05 13:47:00,
2013-09-05 08:52:00,62.3,54.6,30.36,East,86,5.0,6.0,76,0.00,,,0.00,403,Wunderground v.1.15,2013-09-05 13:52:00,
2013-09-05 08:57:00,62.7,54.7,30.36,NE,34,3.0,9.0,75,0.00,,,0.00,418,Wunderground v.1.15,2013-09-05 13:57:00,
2013-09-05 09:02:00,63.1,54.7,30.36,East,94,0.0,5.0,74,0.00,,,0.00,432,Wunderground v.1.15,2013-09-05 14:02:00,
2013-09-05 09:07:00,63.5,55.1,30.36,ENE,62,4.0,9.0,74,0.00,,,0.00,446,Wunderground v.1.15,2013-09-05 14:07:00,
2013-09-05 09:12:00,63.8,54.6,30.36,East,85,3.0,9.0,72,0.00,,,0.00,459,Wunderground v.1.15,2013-09-05 14:12:00,
2013-09-05 09:17:00,64.0,54.4,30.36,East,96,5.0,9.0,71,0.00,,,0.00,473,Wunderground v.1.15,2013-09-05 14:17:00,
2013-09-05 09:22:00,64.3,54.3,30.36,ENE,61,8.0,8.0,70,0.00,,,0.00,489,Wunderground v.1.15,2013-09-05 14:22:00,
2013-09-05 09:27:00,64.7,53.9,30.36,ENE,66,0.0,8.0,68,0.00,,,0.00,503,Wunderground v.1.15,2013-09-05 14:27:00,
2013-09-05 09:32:00,65.0,54.2,30.36,NE,36,1.0,4.0,68,0.00,,,0.00,517,Wunderground v.1.15,2013-09-05 14:32:00,
2013-09-05 09:37:00,65.3,53.6,30.36,NNE,29,3.0,8.0,66,0.00,,,0.00,529,Wunderground v.1.15,2013-09-05 14:37:00,
2013-09-05 09:43:00,65.4,53.7,30.36,ENE,62,0.0,6.0,66,0.00,,,0.00,543,Wunderground v.1.15,2013-09-05 14:43:00,
2013-09-05 09:48:00,65.6,53.5,30.36,ENE,59,0.0,8.0,65,0.00,,,0.00,557,Wunderground v.1.15,2013-09-05 14:48:00,
2013-09-05 09:53:00,65.7,54.4,30.36,ENE,76,5.0,5.0,67,0.00,,,0.00,568,Wunderground v.1.15,2013-09-05 14:53:00,
2013-09-05 09:58:00,66.0,53.9,30.36,North,5,3.0,7.0,65,0.00,,,0.00,580,Wunderground v.1.15,2013-09-05 14:58:00,
2013-09-05 10:03:00,66.2,53.7,30.37,ENE,76,2.0,7.0,64,0.00,,,0.00,596,Wunderground v.1.15,2013-09-05 15:03:00,
2013-09-05 10:08:00,66.5,53.9,30.36,NNE,28,0.0,7.0,64,0.00,,,0.00,605,Wunderground v.1.15,2013-09-05 15:08:00,
2013-09-05 10:13:00,66.7,53.7,30.36,NE,53,2.0,7.0,63,0.00,,,0.00,619,Wunderground v.1.15,2013-09-05 15:13:00,
2013-09-05 10:18:00,66.8,53.8,30.36,North,350,4.0,7.0,63,0.00,,,0.00,629,Wunderground v.1.15,2013-09-05 15:18:00,
2013-09-05 10:23:00,67.3,54.7,30.36,ENE,62,0.0,4.0,64,0.00,,,0.00,642,Wunderground v.1.15,2013-09-05 15:23:00,
2013-09-05 10:28:00,67.7,53.3,30.37,NE,38,2.0,9.0,60,0.00,,,0.00,654,Wunderground v.1.15,2013-09-05 15:28:00,
2013-09-05 10:33:00,67.9,53.5,30.37,East,91,4.0,9.0,60,0.00,,,0.00,663,Wunderground v.1.15,2013-09-05 15:33:00,
2013-09-05 10:38:00,67.9,53.5,30.37,NE,56,1.0,12.0,60,0.00,,,0.00,673,Wunderground v.1.15,2013-09-05 15:38:00,
2013-09-05 10:43:00,68.2,53.8,30.37,NNE,31,1.0,8.0,60,0.00,,,0.00,682,Wunderground v.1.15,2013-09-05 15:43:00,
2013-09-05 10:48:00,68.6,55.1,30.36,NNW,345,7.0,8.0,62,0.00,,,0.00,693,Wunderground v.1.15,2013-09-05 15:48:00,
2013-09-05 10:53:00,68.6,53.7,30.36,ENE,62,1.0,11.0,59,0.00,,,0.00,705,Wunderground v.1.15,2013-09-05 15:53:00,
2013-09-05 10:58:00,68.7,54.3,30.36,North,350,4.0,11.0,60,0.00,,,0.00,710,Wunderground v.1.15,2013-09-05 15:58:00,
2013-09-05 11:03:00,69.1,54.6,30.36,East,80,3.0,7.0,60,0.00,,,0.00,719,Wunderground v.1.15,2013-09-05 16:03:00,
2013-09-05 11:08:00,69.3,54.8,30.36,NE,53,0.0,7.0,60,0.00,,,0.00,728,Wunderground v.1.15,2013-09-05 16:08:00,
2013-09-05 11:13:00,69.6,55.1,30.36,NNE,14,0.0,4.0,60,0.00,,,0.00,733,Wunderground v.1.15,2013-09-05 16:13:00,
2013-09-05 11:18:00,69.7,54.7,30.36,ENE,65,2.0,6.0,59,0.00,,,0.00,744,Wunderground v.1.15,2013-09-05 16:18:00,
2013-09-05 11:23:00,69.8,55.3,30.36,ENE,58,4.0,4.0,60,0.00,,,0.00,751,Wunderground v.1.15,2013-09-05 16:23:00,
2013-09-05 11:28:00,69.9,54.9,30.36,NE,36,3.0,7.0,59,0.00,,,0.00,758,Wunderground v.1.15,2013-09-05 16:28:00,
2013-09-05 11:33:00,69.9,54.4,30.36,ESE,122,7.0,12.0,58,0.00,,,0.00,763,Wunderground v.1.15,2013-09-05 16:33:00,
2013-09-05 11:38:00,69.7,55.2,30.36,ENE,66,1.0,12.0,60,0.00,,,0.00,770,Wunderground v.1.15,2013-09-05 16:38:00,
2013-09-05 11:43:00,70.1,55.1,30.36,ENE,78,0.0,7.0,59,0.00,,,0.00,777,Wunderground v.1.15,2013-09-05 16:43:00,
2013-09-05 11:48:00,70.6,55.1,30.36,NNE,30,3.0,7.0,58,0.00,,,0.00,779,Wunderground v.1.15,2013-09-05 16:48:00,
2013-09-05 11:53:00,71.0,55.5,30.36,NE,56,2.0,4.0,58,0.00,,,0.00,786,Wunderground v.1.15,2013-09-05 16:53:00,
2013-09-05 11:58:00,71.1,55.6,30.36,NNE,24,1.0,5.0,58,0.00,,,0.00,791,Wunderground v.1.15,2013-09-05 16:58:00,
2013-09-05 12:03:00,70.9,54.9,30.36,East,86,4.0,6.0,57,0.00,,,0.00,795,Wunderground v.1.15,2013-09-05 17:03:00,
2013-09-05 12:08:00,70.7,55.2,30.36,East,82,3.0,6.0,58,0.00,,,0.00,796,Wunderground v.1.15,2013-09-05 17:08:00,
2013-09-05 12:13:00,70.7,55.7,30.36,East,97,4.0,11.0,59,0.00,,,0.00,803,Wunderground v.1.15,2013-09-05 17:13:00,
2013-09-05 12:18:00,70.6,55.1,30.36,SE,145,7.0,11.0,58,0.00,,,0.00,803,Wunderground v.1.15,2013-09-05 17:18:00,
2013-09-05 12:23:00,70.4,55.4,30.35,SE,136,0.0,8.0,59,0.00,,,0.00,809,Wunderground v.1.15,2013-09-05 17:23:00,
2013-09-05 12:28:00,70.4,56.3,30.35,ESE,104,2.0,8.0,61,0.00,,,0.00,809,Wunderground v.1.15,2013-09-05 17:28:00,
2013-09-05 12:33:00,70.9,55.9,30.35,NW,315,0.0,6.0,59,0.00,,,0.00,810,Wunderground v.1.15,2013-09-05 17:33:00,
2013-09-05 12:39:00,71.6,57.0,30.35,East,90,6.0,6.0,60,0.00,,,0.00,816,Wunderground v.1.15,2013-09-05 17:39:00,
2013-09-05 12:44:00,71.8,56.7,30.35,ESE,122,4.0,5.0,59,0.00,,,0.00,816,Wunderground v.1.15,2013-09-05 17:44:00,
2013-09-05 12:49:00,72.0,55.9,30.35,ENE,65,4.0,8.0,57,0.00,,,0.00,816,Wunderground v.1.15,2013-09-05 17:49:00,
2013-09-05 12:54:00,71.6,55.6,30.35,SE,126,1.0,7.0,57,0.00,,,0.00,816,Wunderground v.1.15,2013-09-05 17:54:00,
2013-09-05 12:59:00,71.4,55.4,30.35,ESE,113,0.0,11.0,57,0.00,,,0.00,341,Wunderground v.1.15,2013-09-05 17:59:00,
2013-09-05 13:04:00,71.5,55.5,30.35,ESE,108,1.0,6.0,57,0.00,,,0.00,817,Wunderground v.1.15,2013-09-05 18:04:00,
2013-09-05 13:09:00,71.4,56.3,30.34,SSE,162,4.0,6.0,59,0.00,,,0.00,816,Wunderground v.1.15,2013-09-05 18:09:00,
2013-09-05 13:14:00,71.7,56.1,30.34,NE,38,1.0,8.0,58,0.00,,,0.00,814,Wunderground v.1.15,2013-09-05 18:14:00,
2013-09-05 13:19:00,72.0,54.9,30.34,SSE,148,1.0,8.0,55,0.00,,,0.00,816,Wunderground v.1.15,2013-09-05 18:19:00,
2013-09-05 13:24:00,72.2,55.1,30.34,East,98,4.0,7.0,55,0.00,,,0.00,809,Wunderground v.1.15,2013-09-05 18:24:00,
2013-09-05 13:29:00,72.2,55.6,30.34,East,93,0.0,7.0,56,0.00,,,0.00,805,Wunderground v.1.15,2013-09-05 18:29:00,
2013-09-05 13:34:00,72.4,55.8,30.34,NNE,26,2.0,7.0,56,0.00,,,0.00,805,Wunderground v.1.15,2013-09-05 18:34:00,
2013-09-05 13:39:00,72.7,55.1,30.33,NE,39,4.0,7.0,54,0.00,,,0.00,800,Wunderground v.1.15,2013-09-05 18:39:00,
2013-09-05 13:44:00,72.6,55.5,30.33,NNE,17,0.0,4.0,55,0.00,,,0.00,796,Wunderground v.1.15,2013-09-05 18:44:00,
2013-09-05 13:49:00,73.1,56.0,30.33,ESE,105,1.0,7.0,55,0.00,,,0.00,795,Wunderground v.1.15,2013-09-05 18:49:00,
2013-09-05 13:54:00,73.3,56.2,30.32,ENE,61,4.0,9.0,55,0.00,,,0.00,793,Wunderground v.1.15,2013-09-05 18:54:00,
2013-09-05 13:59:00,73.2,55.6,30.32,NE,46,5.0,9.0,54,0.00,,,0.00,786,Wunderground v.1.15,2013-09-05 18:59:00,
2013-09-05 14:04:00,73.4,55.7,30.32,East,99,4.0,7.0,54,0.00,,,0.00,782,Wunderground v.1.15,2013-09-05 19:04:00,
2013-09-05 14:09:00,73.4,55.7,30.32,East,100,0.0,2.0,54,0.00,,,0.00,777,Wunderground v.1.15,2013-09-05 19:09:00,
2013-09-05 14:15:00,74.0,55.8,30.32,ENE,69,4.0,7.0,53,0.00,,,0.00,772,Wunderground v.1.15,2013-09-05 19:15:00,
2013-09-05 14:20:00,74.4,56.7,30.32,NNE,17,2.0,4.0,54,0.00,,,0.00,766,Wunderground v.1.15,2013-09-05 19:20:00,
2013-09-05 14:25:00,74.7,55.9,30.32,East,82,0.0,5.0,52,0.00,,,0.00,758,Wunderground v.1.15,2013-09-05 19:25:00,
2013-09-05 14:30:00,74.7,56.4,30.32,East,82,1.0,2.0,53,0.00,,,0.00,749,Wunderground v.1.15,2013-09-05 19:30:00,
2013-09-05 14:35:00,74.9,55.6,30.31,ESE,117,6.0,7.0,51,0.00,,,0.00,745,Wunderground v.1.15,2013-09-05 19:35:00,
2013-09-05 14:40:00,75.2,55.8,30.31,SE,142,1.0,2.0,51,0.00,,,0.00,738,Wunderground v.1.15,2013-09-05 19:40:00,
2013-09-05 14:45:00,75.4,54.9,30.31,ENE,67,5.0,7.0,49,0.00,,,0.00,729,Wunderground v.1.15,2013-09-05 19:45:00,
2013-09-05 14:50:00,75.3,54.3,30.32,East,84,2.0,3.0,48,0.00,,,0.00,719,Wunderground v.1.15,2013-09-05 19:50:00,
2013-09-05 14:55:00,74.7,54.8,30.31,ESE,103,6.0,6.0,50,0.00,,,0.00,712,Wunderground v.1.15,2013-09-05 19:55:00,
2013-09-05 15:00:00,74.5,55.2,30.31,ESE,111,0.0,1.0,51,0.00,,,0.00,703,Wunderground v.1.15,2013-09-05 20:00:00,
2013-09-05 15:05:00,74.6,55.3,30.31,ENE,78,3.0,8.0,51,0.00,,,0.00,693,Wunderground v.1.15,2013-09-05 20:05:00,
2013-09-05 15:10:00,75.1,55.2,30.31,NE,54,2.0,4.0,50,0.00,,,0.00,682,Wunderground v.1.15,2013-09-05 20:10:00,
2013-09-05 15:15:00,75.3,55.4,30.30,SE,135,0.0,9.0,50,0.00,,,0.00,675,Wunderground v.1.15,2013-09-05 20:15:00,
2013-09-05 15:20:00,75.3,54.8,30.31,SE,131,0.0,3.0,49,0.00,,,0.00,664,Wunderground v.1.15,2013-09-05 20:20:00,
2013-09-05 15:25:00,75.4,56.0,30.30,SE,131,0.0,7.0,51,0.00,,,0.00,652,Wunderground v.1.15,2013-09-05 20:25:00,
2013-09-05 15:30:00,75.9,55.9,30.30,NE,36,0.0,2.0,50,0.00,,,0.00,640,Wunderground v.1.15,2013-09-05 20:30:00,
2013-09-05 15:35:00,76.4,56.4,30.30,East,94,5.0,6.0,50,0.00,,,0.00,629,Wunderground v.1.15,2013-09-05 20:35:00,
2013-09-05 15:40:00,76.5,56.5,30.30,ENE,64,0.0,2.0,50,0.00,,,0.00,619,Wunderground v.1.15,2013-09-05 20:40:00,
2013-09-05 15:45:00,76.5,56.5,30.30,East,84,0.0,4.0,50,0.00,,,0.00,606,Wunderground v.1.15,2013-09-05 20:45:00,
2013-09-05 15:50:00,76.6,56.0,30.30,ESE,108,5.0,6.0,49,0.00,,,0.00,594,Wunderground v.1.15,2013-09-05 20:50:00,
2013-09-05 15:55:00,76.4,55.3,30.30,ESE,103,5.0,7.0,48,0.00,,,0.00,582,Wunderground v.1.15,2013-09-05 20:55:00,
2013-09-05 16:00:00,76.4,56.9,30.30,NE,49,1.0,3.0,51,0.00,,,0.00,570,Wunderground v.1.15,2013-09-05 21:00:00,
2013-09-05 16:05:00,76.7,56.7,30.30,NNE,22,3.0,4.0,50,0.00,,,0.00,555,Wunderground v.1.15,2013-09-05 21:05:00,
2013-09-05 16:10:00,76.9,55.7,30.30,East,101,1.0,2.0,48,0.00,,,0.00,545,Wunderground v.1.15,2013-09-05 21:10:00,
2013-09-05 16:15:00,76.7,55.0,30.30,East,82,1.0,7.0,47,0.00,,,0.00,531,Wunderground v.1.15,2013-09-05 21:15:00,
2013-09-05 16:20:00,76.8,55.0,30.30,NE,42,0.0,1.0,47,0.00,,,0.00,517,Wunderground v.1.15,2013-09-05 21:20:00,
2013-09-05 16:25:00,76.9,56.3,30.30,NNE,21,0.0,5.0,49,0.00,,,0.00,501,Wunderground v.1.15,2013-09-05 21:25:00,
2013-09-05 16:30:00,77.2,56.0,30.30,ENE,67,3.0,3.0,48,0.00,,,0.00,487,Wunderground v.1.15,2013-09-05 21:30:00,
2013-09-05 16:35:00,77.2,54.2,30.30,ESE,114,4.0,6.0,45,0.00,,,0.00,476,Wunderground v.1.15,2013-09-05 21:35:00,
2013-09-05 16:40:00,76.6,54.3,30.30,East,99,6.0,8.0,46,0.00,,,0.00,461,Wunderground v.1.15,2013-09-05 21:40:00,
2013-09-05 16:45:00,75.9,54.2,30.30,ESE,115,5.0,9.0,47,0.00,,,0.00,446,Wunderground v.1.15,2013-09-05 21:45:00,
2013-09-05 16:50:00,75.8,54.1,30.30,East,86,0.0,3.0,47,0.00,,,0.00,431,Wunderground v.1.15,2013-09-05 21:50:00,
2013-09-05 16:55:00,76.1,54.4,30.30,ESE,102,0.0,7.0,47,0.00,,,0.00,415,Wunderground v.1.15,2013-09-05 21:55:00,
2013-09-05 17:00:00,76.1,53.8,30.30,East,101,0.0,1.0,46,0.00,,,0.00,399,Wunderground v.1.15,2013-09-05 22:00:00,
2013-09-05 17:05:00,76.4,55.3,30.29,ENE,78,0.0,4.0,48,0.00,,,0.00,383,Wunderground v.1.15,2013-09-05 22:05:00,
2013-09-05 17:10:00,76.6,56.6,30.29,NE,55,1.0,1.0,50,0.00,,,0.00,367,Wunderground v.1.15,2013-09-05 22:10:00,
2013-09-05 17:15:00,76.4,56.4,30.29,ENE,76,1.0,4.0,50,0.00,,,0.00,353,Wunderground v.1.15,2013-09-05 22:15:00,
2013-09-05 17:20:00,76.4,55.8,30.29,East,92,1.0,1.0,49,0.00,,,0.00,338,Wunderground v.1.15,2013-09-05 22:20:00,
2013-09-05 17:25:00,76.3,55.7,30.29,East,92,4.0,6.0,49,0.00,,,0.00,322,Wunderground v.1.15,2013-09-05 22:25:00,
2013-09-05 17:30:00,76.1,55.5,30.29,ENE,64,1.0,1.0,49,0.00,,,0.00,306,Wunderground v.1.15,2013-09-05 22:30:00,
2013-09-05 17:35:00,75.5,56.1,30.29,ESE,115,0.0,8.0,51,0.00,,,0.00,290,Wunderground v.1.15,2013-09-05 22:35:00,
2013-09-05 17:40:00,75.1,56.3,30.29,ENE,59,0.0,3.0,52,0.00,,,0.00,274,Wunderground v.1.15,2013-09-05 22:40:00,
2013-09-05 17:45:00,75.1,56.3,30.29,ESE,121,8.0,8.0,52,0.00,,,0.00,257,Wunderground v.1.15,2013-09-05 22:45:00,
2013-09-05 17:50:00,75.0,56.7,30.29,East,101,0.0,1.0,53,0.00,,,0.00,239,Wunderground v.1.15,2013-09-05 22:50:00,
2013-09-05 17:55:00,75.0,56.2,30.29,ESE,109,2.0,8.0,52,0.00,,,0.00,225,Wunderground v.1.15,2013-09-05 22:55:00,
2013-09-05 18:00:00,74.9,56.1,30.29,East,93,2.0,6.0,52,0.00,,,0.00,207,Wunderground v.1.15,2013-09-05 23:00:00,
2013-09-05 18:05:00,74.6,56.3,30.29,East,100,4.0,7.0,53,0.00,,,0.00,186,Wunderground v.1.15,2013-09-05 23:05:00,
2013-09-05 18:10:00,74.4,56.2,30.29,ENE,76,2.0,3.0,53,0.00,,,0.00,167,Wunderground v.1.15,2013-09-05 23:10:00,
2013-09-05 18:15:00,74.2,56.5,30.29,ENE,68,1.0,6.0,54,0.00,,,0.00,148,Wunderground v.1.15,2013-09-05 23:15:00,
2013-09-05 18:20:00,73.9,56.2,30.29,ENE,68,0.0,2.0,54,0.00,,,0.00,130,Wunderground v.1.15,2013-09-05 23:20:00,
2013-09-05 18:25:00,73.5,55.3,30.29,NE,55,0.0,7.0,53,0.00,,,0.00,113,Wunderground v.1.15,2013-09-05 23:25:00,
2013-09-05 18:30:00,73.1,56.0,30.28,NE,56,0.0,1.0,55,0.00,,,0.00,97,Wunderground v.1.15,2013-09-05 23:30:00,
2013-09-05 18:35:00,72.8,55.7,30.28,ENE,63,1.0,4.0,55,0.00,,,0.00,81,Wunderground v.1.15,2013-09-05 23:35:00,
2013-09-05 18:40:00,72.5,55.4,30.28,ENE,63,0.0,1.0,55,0.00,,,0.00,67,Wunderground v.1.15,2013-09-05 23:40:00,
2013-09-05 18:45:00,71.9,55.3,30.29,ENE,76,0.0,3.0,56,0.00,,,0.00,46,Wunderground v.1.15,2013-09-05 23:45:00,
2013-09-05 18:50:00,71.3,55.3,30.29,ENE,76,0.0,3.0,57,0.00,,,0.00,23,Wunderground v.1.15,2013-09-05 23:50:00,
2013-09-05 18:55:00,70.5,55.5,30.29,ENE,75,0.0,3.0,59,0.00,,,0.00,19,Wunderground v.1.15,2013-09-05 23:55:00,
2013-09-05 19:00:00,69.8,55.3,30.29,North,360,0.0,1.0,60,0.00,,,0.00,16,Wunderground v.1.15,2013-09-06 00:00:00,
2013-09-05 19:05:00,69.1,55.5,30.29,NE,38,0.0,2.0,62,0.00,,,0.00,14,Wunderground v.1.15,2013-09-06 00:05:00,
2013-09-05 19:10:00,68.3,55.2,30.29,NE,38,0.0,1.0,63,0.00,,,0.00,11,Wunderground v.1.15,2013-09-06 00:10:00,
2013-09-05 19:15:00,67.7,55.5,30.29,NE,38,0.0,1.0,65,0.00,,,0.00,9,Wunderground v.1.15,2013-09-06 00:15:00,
2013-09-05 19:20:00,67.0,55.3,30.29,NE,38,1.0,1.0,66,0.00,,,0.00,7,Wunderground v.1.15,2013-09-06 00:20:00,
2013-09-05 19:26:00,66.4,55.5,30.29,NNE,32,0.0,5.0,68,0.00,,,0.00,0,Wunderground v.1.15,2013-09-06 00:26:00,
2013-09-05 19:31:00,65.9,55.4,30.29,NE,45,0.0,2.0,69,0.00,,,0.00,0,Wunderground v.1.15,2013-09-06 00:31:00,
2013-09-05 19:36:00,65.5,55.5,30.29,NE,51,4.0,5.0,70,0.00,,,0.00,0,Wunderground v.1.15,2013-09-06 00:36:00,
2013-09-05 19:41:00,65.1,55.5,30.29,ENE,63,0.0,0.0,71,0.00,,,0.00,0,Wunderground v.1.15,2013-09-06 00:41:00,
2013-09-05 19:46:00,64.9,55.7,30.29,ENE,63,0.0,2.0,72,0.00,,,0.00,0,Wunderground v.1.15,2013-09-06 00:46:00,
2013-09-05 19:51:00,64.5,55.7,30.30,ENE,63,0.0,0.0,73,0.00,,,0.00,0,Wunderground v.1.15,2013-09-06 00:51:00,
2013-09-05 19:56:00,64.3,55.8,30.30,ENE,63,0.0,0.0,74,0.00,,,0.00,0,Wunderground v.1.15,2013-09-06 00:56:00,
2013-09-05 20:01:00,64.0,55.5,30.30,ENE,63,1.0,1.0,74,0.00,,,0.00,0,Wunderground v.1.15,2013-09-06 01:01:00,
2013-09-05 20:06:00,63.7,55.6,30.30,ENE,75,0.0,4.0,75,0.00,,,0.00,0,Wunderground v.1.15,2013-09-06 01:06:00,
2013-09-05 20:11:00,63.4,55.3,30.31,ESE,107,1.0,7.0,75,0.00,,,0.00,0,Wunderground v.1.15,2013-09-06 01:11:00,
2013-09-05 20:16:00,63.1,54.7,30.31,East,87,0.0,7.0,74,0.00,,,0.00,0,Wunderground v.1.15,2013-09-06 01:16:00,
2013-09-05 20:21:00,63.0,54.6,30.31,East,91,2.0,4.0,74,0.00,,,0.00,0,Wunderground v.1.15,2013-09-06 01:21:00,
2013-09-05 20:26:00,62.8,54.4,30.31,East,101,0.0,6.0,74,0.00,,,0.00,0,Wunderground v.1.15,2013-09-06 01:26:00,
2013-09-05 20:31:00,62.6,54.6,30.31,East,100,0.0,1.0,75,0.00,,,0.00,0,Wunderground v.1.15,2013-09-06 01:31:00,
2013-09-05 20:36:00,62.4,54.4,30.31,East,90,1.0,2.0,75,0.00,,,0.00,0,Wunderground v.1.15,2013-09-06 01:36:00,
2013-09-05 20:41:00,62.1,54.1,30.31,East,93,0.0,2.0,75,0.00,,,0.00,0,Wunderground v.1.15,2013-09-06 01:41:00,
2013-09-05 20:46:00,61.8,53.8,30.31,East,93,1.0,2.0,75,0.00,,,0.00,0,Wunderground v.1.15,2013-09-06 01:46:00,
2013-09-05 20:51:00,61.5,53.9,30.31,East,93,0.0,4.0,76,0.00,,,0.00,0,Wunderground v.1.15,2013-09-06 01:51:00,
2013-09-05 20:56:00,61.2,53.6,30.31,East,86,0.0,5.0,76,0.00,,,0.00,0,Wunderground v.1.15,2013-09-06 01:56:00,
2013-09-05 21:01:00,60.9,53.3,30.31,East,95,0.0,4.0,76,0.00,,,0.00,0,Wunderground v.1.15,2013-09-06 02:01:00,
2013-09-05 21:06:00,60.7,53.4,30.31,East,94,0.0,4.0,77,0.00,,,0.00,0,Wunderground v.1.15,2013-09-06 02:06:00,
2013-09-05 21:11:00,60.5,53.3,30.31,East,94,0.0,2.0,77,0.00,,,0.00,0,Wunderground v.1.15,2013-09-06 02:11:00,
2013-09-05 21:16:00,60.3,53.1,30.31,East,94,0.0,2.0,77,0.00,,,0.00,0,Wunderground v.1.15,2013-09-06 02:16:00,
2013-09-05 21:21:00,60.1,53.2,30.31,East,94,0.0,0.0,78,0.00,,,0.00,0,Wunderground v.1.15,2013-09-06 02:21:00,
2013-09-05 21:26:00,59.8,52.9,30.31,East,94,2.0,2.0,78,0.00,,,0.00,0,Wunderground v.1.15,2013-09-06 02:26:00,
2013-09-05 21:31:00,59.6,53.1,30.31,East,94,0.0,1.0,79,0.00,,,0.00,0,Wunderground v.1.15,2013-09-06 02:31:00,
2013-09-05 21:36:00,59.3,52.8,30.31,East,94,0.0,1.0,79,0.00,,,0.00,0,Wunderground v.1.15,2013-09-06 02:36:00,
2013-09-05 21:41:00,59.1,52.9,30.31,East,94,0.0,1.0,80,0.00,,,0.00,0,Wunderground v.1.15,2013-09-06 02:41:00,
2013-09-05 21:46:00,58.9,52.7,30.31,East,96,0.0,4.0,80,0.00,,,0.00,0,Wunderground v.1.15,2013-09-06 02:46:00,
2013-09-05 21:51:00,58.7,52.5,30.31,SE,138,0.0,7.0,80,0.00,,,0.00,0,Wunderground v.1.15,2013-09-06 02:51:00,
2013-09-05 21:56:00,58.6,52.4,30.31,SE,138,2.0,7.0,80,0.00,,,0.00,0,Wunderground v.1.15,2013-09-06 02:56:00,
2013-09-05 22:01:00,58.5,52.4,30.31,ESE,106,0.0,5.0,80,0.00,,,0.00,0,Wunderground v.1.15,2013-09-06 03:01:00,
2013-09-05 22:06:00,58.4,52.3,30.31,ESE,106,0.0,5.0,80,0.00,,,0.00,0,Wunderground v.1.15,2013-09-06 03:06:00,
2013-09-05 22:11:00,58.3,52.2,30.31,East,101,0.0,4.0,80,0.00,,,0.00,0,Wunderground v.1.15,2013-09-06 03:11:00,
2013-09-05 22:16:00,58.1,52.0,30.31,East,101,0.0,4.0,80,0.00,,,0.00,0,Wunderground v.1.15,2013-09-06 03:16:00,
2013-09-05 22:21:00,58.0,51.9,30.31,East,101,0.0,5.0,80,0.00,,,0.00,0,Wunderground v.1.15,2013-09-06 03:21:00,
2013-09-05 22:26:00,58.0,51.5,30.31,East,101,0.0,5.0,79,0.00,,,0.00,0,Wunderground v.1.15,2013-09-06 03:26:00,
2013-09-05 22:31:00,58.0,51.5,30.31,East,101,0.0,2.0,79,0.00,,,0.00,0,Wunderground v.1.15,2013-09-06 03:31:00,
2013-09-05 22:36:00,58.0,51.5,30.31,East,101,0.0,2.0,79,0.00,,,0.00,0,Wunderground v.1.15,2013-09-06 03:36:00,
2013-09-05 22:42:00,57.8,51.3,30.31,ESE,102,0.0,1.0,79,0.00,,,0.00,0,Wunderground v.1.15,2013-09-06 03:42:00,
2013-09-05 22:47:00,57.7,51.2,30.31,ESE,102,0.0,1.0,79,0.00,,,0.00,0,Wunderground v.1.15,2013-09-06 03:47:00,
2013-09-05 22:52:00,57.5,51.0,30.31,ESE,102,1.0,2.0,79,0.00,,,0.00,0,Wunderground v.1.15,2013-09-06 03:52:00,
2013-09-05 22:57:00,57.3,51.2,30.31,ESE,102,0.0,2.0,80,0.00,,,0.00,0,Wunderground v.1.15,2013-09-06 03:57:00,
2013-09-05 23:01:00,57.2,51.1,30.31,ESE,102,0.0,2.0,80,0.00,,,0.00,0,Wunderground v.1.15,2013-09-06 04:01:00,
2013-09-05 23:02:00,57.2,51.1,30.31,ESE,103,0.0,2.0,80,0.00,,,0.00,0,Wunderground v.1.15,2013-09-06 04:02:00,
2013-09-05 23:07:00,57.1,51.0,30.31,ESE,102,0.0,2.0,80,0.00,,,0.00,0,Wunderground v.1.15,2013-09-06 04:07:00,
2013-09-05 23:12:00,57.1,51.0,30.31,ESE,103,0.0,2.0,80,0.00,,,0.00,0,Wunderground v.1.15,2013-09-06 04:12:00,
2013-09-05 23:17:00,57.2,50.7,30.31,East,80,3.0,4.0,79,0.00,,,0.00,0,Wunderground v.1.15,2013-09-06 04:17:00,
2013-09-05 23:22:00,57.3,50.8,30.31,East,83,1.0,3.0,79,0.00,,,0.00,0,Wunderground v.1.15,2013-09-06 04:22:00,
2013-09-05 23:27:00,57.3,50.5,30.31,ESE,121,0.0,8.0,78,0.00,,,0.00,0,Wunderground v.1.15,2013-09-06 04:27:00,
2013-09-05 23:32:00,57.2,50.4,30.31,ESE,121,0.0,1.0,78,0.00,,,0.00,0,Wunderground v.1.15,2013-09-06 04:32:00,
2013-09-05 23:37:00,57.0,50.2,30.31,ESE,121,0.0,1.0,78,0.00,,,0.00,0,Wunderground v.1.15,2013-09-06 04:37:00,
2013-09-05 23:42:00,56.8,50.0,30.31,ESE,121,0.0,1.0,78,0.00,,,0.00,0,Wunderground v.1.15,2013-09-06 04:42:00,
2013-09-05 23:47:00,56.6,49.8,30.30,ESE,121,0.0,2.0,78,0.00,,,0.00,0,Wunderground v.1.15,2013-09-06 04:47:00,
2013-09-05 23:52:00,56.5,49.7,30.30,ESE,121,0.0,0.0,78,0.00,,,0.00,0,Wunderground v.1.15,2013-09-06 04:52:00,
2013-09-05 23:57:00,56.3,49.5,30.31,ESE,121,0.0,1.0,78,0.00,,,0.00,0,Wunderground v.1.15,2013-09-06 04:57:00,